sensor_id;sensor_type;location;lat;lon;timestamp;P1;P2;P0
55276;PMS5003;41136;51.478;-2.610;2024-03-25T00:00:56;9;6;
55276;PMS5003;41136;51.478;-2.610;2024-03-25T00:03:21;8;7;
55276;PMS5003;41136;51.478;-2.610;2024-03-25T00:05:46;11;9;
55276;PMS5003;41136;51.478;-2.610;2024-03-25T00:08:12;9;9;
55276;PMS5003;41136;51.478;-2.610;2024-03-25T00:10:37;15;14;
55276;PMS5003;41136;51.478;-2.610;2024-03-25T00:13:03;18;15;
55276;PMS5003;41136;51.478;-2.610;2024-03-25T00:15:28;18;17;
55276;PMS5003;41136;51.478;-2.610;2024-03-25T00:17:53;23;21;
55276;PMS5003;41136;51.478;-2.610;2024-03-25T00:20:19;26;24;
55276;PMS5003;41136;51.478;-2.610;2024-03-25T00:22:44;25;24;
55276;PMS5003;41136;51.478;-2.610;2024-03-25T00:25:10;23;22;
55276;PMS5003;41136;51.478;-2.610;2024-03-25T00:27:35;24;24;
55276;PMS5003;41136;51.478;-2.610;2024-03-25T00:30:01;28;24;
55276;PMS5003;41136;51.478;-2.610;2024-03-25T00:32:26;20;18;
55276;PMS5003;41136;51.478;-2.610;2024-03-25T00:34:51;17;17;
55276;PMS5003;41136;51.478;-2.610;2024-03-25T00:37:17;20;18;
55276;PMS5003;41136;51.478;-2.610;2024-03-25T00:39:43;15;12;
55276;PMS5003;41136;51.478;-2.610;2024-03-25T00:42:08;14;10;
55276;PMS5003;41136;51.478;-2.610;2024-03-25T00:44:34;15;14;
55276;PMS5003;41136;51.478;-2.610;2024-03-25T00:46:59;14;10;
55276;PMS5003;41136;51.478;-2.610;2024-03-25T00:49:24;9;8;
55276;PMS5003;41136;51.478;-2.610;2024-03-25T00:51:49;13;12;
55276;PMS5003;41136;51.478;-2.610;2024-03-25T00:54:14;13;10;
55276;PMS5003;41136;51.478;-2.610;2024-03-25T00:56:39;9;7;
55276;PMS5003;41136;51.478;-2.610;2024-03-25T00:59:05;7;7;
55276;PMS5003;41136;51.478;-2.610;2024-03-25T01:01:30;11;10;
55276;PMS5003;41136;51.478;-2.610;2024-03-25T01:03:55;9;7;
55276;PMS5003;41136;51.478;-2.610;2024-03-25T01:15:16;7;7;
55276;PMS5003;41136;51.478;-2.610;2024-03-25T01:17:46;7;7;
55276;PMS5003;41136;51.478;-2.610;2024-03-25T01:20:08;9;8;
55276;PMS5003;41136;51.478;-2.610;2024-03-25T01:22:32;13;10;
55276;PMS5003;41136;51.478;-2.610;2024-03-25T01:24:58;9;7;
55276;PMS5003;41136;51.478;-2.610;2024-03-25T01:27:23;10;7;
55276;PMS5003;41136;51.478;-2.610;2024-03-25T01:29:48;11;10;
55276;PMS5003;41136;51.478;-2.610;2024-03-25T01:32:13;13;9;
55276;PMS5003;41136;51.478;-2.610;2024-03-25T01:34:39;8;6;
55276;PMS5003;41136;51.478;-2.610;2024-03-25T01:37:04;6;6;
55276;PMS5003;41136;51.478;-2.610;2024-03-25T01:39:30;14;8;
55276;PMS5003;41136;51.478;-2.610;2024-03-25T01:41:55;7;7;
55276;PMS5003;41136;51.478;-2.610;2024-03-25T01:44:20;8;6;
55276;PMS5003;41136;51.478;-2.610;2024-03-25T01:46:46;7;7;
55276;PMS5003;41136;51.478;-2.610;2024-03-25T01:49:11;6;6;
55276;PMS5003;41136;51.478;-2.610;2024-03-25T01:51:36;5;5;
55276;PMS5003;41136;51.478;-2.610;2024-03-25T01:54:02;5;5;
55276;PMS5003;41136;51.478;-2.610;2024-03-25T01:56:27;9;8;
55276;PMS5003;41136;51.478;-2.610;2024-03-25T01:58:52;11;7;
55276;PMS5003;41136;51.478;-2.610;2024-03-25T02:01:18;8;7;
55276;PMS5003;41136;51.478;-2.610;2024-03-25T02:03:43;8;8;
55276;PMS5003;41136;51.478;-2.610;2024-03-25T02:06:12;7;6;
55276;PMS5003;41136;51.478;-2.610;2024-03-25T02:08:34;6;6;
55276;PMS5003;41136;51.478;-2.610;2024-03-25T02:10:59;10;8;
55276;PMS5003;41136;51.478;-2.610;2024-03-25T02:13:25;8;7;
55276;PMS5003;41136;51.478;-2.610;2024-03-25T02:15:50;7;7;
55276;PMS5003;41136;51.478;-2.610;2024-03-25T02:18:16;6;6;
55276;PMS5003;41136;51.478;-2.610;2024-03-25T02:20:41;7;6;
55276;PMS5003;41136;51.478;-2.610;2024-03-25T02:23:07;11;8;
55276;PMS5003;41136;51.478;-2.610;2024-03-25T02:25:32;8;7;
55276;PMS5003;41136;51.478;-2.610;2024-03-25T02:27:57;7;6;
55276;PMS5003;41136;51.478;-2.610;2024-03-25T02:30:22;11;7;
55276;PMS5003;41136;51.478;-2.610;2024-03-25T02:32:47;7;7;
55276;PMS5003;41136;51.478;-2.610;2024-03-25T02:35:13;7;7;
55276;PMS5003;41136;51.478;-2.610;2024-03-25T02:37:38;7;5;
55276;PMS5003;41136;51.478;-2.610;2024-03-25T02:48:20;6;6;
55276;PMS5003;41136;51.478;-2.610;2024-03-25T02:50:45;6;5;
55276;PMS5003;41136;51.478;-2.610;2024-03-25T02:53:10;7;6;
55276;PMS5003;41136;51.478;-2.610;2024-03-25T02:55:35;9;7;
55276;PMS5003;41136;51.478;-2.610;2024-03-25T02:58:00;7;5;
55276;PMS5003;41136;51.478;-2.610;2024-03-25T03:00:25;7;6;
55276;PMS5003;41136;51.478;-2.610;2024-03-25T03:02:51;6;5;
55276;PMS5003;41136;51.478;-2.610;2024-03-25T03:05:16;7;7;
55276;PMS5003;41136;51.478;-2.610;2024-03-25T03:07:41;6;6;
55276;PMS5003;41136;51.478;-2.610;2024-03-25T03:10:07;6;5;
55276;PMS5003;41136;51.478;-2.610;2024-03-25T03:12:32;10;8;
55276;PMS5003;41136;51.478;-2.610;2024-03-25T03:14:57;7;7;
55276;PMS5003;41136;51.478;-2.610;2024-03-25T03:17:23;10;9;
55276;PMS5003;41136;51.478;-2.610;2024-03-25T03:19:48;5;5;
55276;PMS5003;41136;51.478;-2.610;2024-03-25T03:22:14;8;8;
55276;PMS5003;41136;51.478;-2.610;2024-03-25T03:24:39;5;5;
55276;PMS5003;41136;51.478;-2.610;2024-03-25T03:27:04;9;8;
55276;PMS5003;41136;51.478;-2.610;2024-03-25T03:29:30;7;5;
55276;PMS5003;41136;51.478;-2.610;2024-03-25T03:31:55;7;5;
55276;PMS5003;41136;51.478;-2.610;2024-03-25T03:34:20;9;8;
55276;PMS5003;41136;51.478;-2.610;2024-03-25T03:36:46;4;4;
55276;PMS5003;41136;51.478;-2.610;2024-03-25T03:39:11;9;8;
55276;PMS5003;41136;51.478;-2.610;2024-03-25T03:41:36;8;8;
55276;PMS5003;41136;51.478;-2.610;2024-03-25T03:44:02;8;5;
55276;PMS5003;41136;51.478;-2.610;2024-03-25T03:46:27;8;7;
55276;PMS5003;41136;51.478;-2.610;2024-03-25T03:48:53;8;6;
55276;PMS5003;41136;51.478;-2.610;2024-03-25T03:51:18;6;5;
55276;PMS5003;41136;51.478;-2.610;2024-03-25T03:53:43;4;4;
55276;PMS5003;41136;51.478;-2.610;2024-03-25T03:56:09;7;6;
55276;PMS5003;41136;51.478;-2.610;2024-03-25T03:58:34;5;4;
55276;PMS5003;41136;51.478;-2.610;2024-03-25T04:00:59;3;3;
55276;PMS5003;41136;51.478;-2.610;2024-03-25T04:03:25;3;3;
55276;PMS5003;41136;51.478;-2.610;2024-03-25T04:05:50;3;3;
55276;PMS5003;41136;51.478;-2.610;2024-03-25T04:08:16;5;4;
55276;PMS5003;41136;51.478;-2.610;2024-03-25T04:10:41;4;4;
55276;PMS5003;41136;51.478;-2.610;2024-03-25T04:13:07;4;3;
55276;PMS5003;41136;51.478;-2.610;2024-03-25T04:15:32;3;3;
55276;PMS5003;41136;51.478;-2.610;2024-03-25T04:17:57;5;5;
55276;PMS5003;41136;51.478;-2.610;2024-03-25T04:20:22;4;2;
55276;PMS5003;41136;51.478;-2.610;2024-03-25T04:22:48;4;3;
55276;PMS5003;41136;51.478;-2.610;2024-03-25T04:25:13;4;4;
55276;PMS5003;41136;51.478;-2.610;2024-03-25T04:27:38;6;5;
55276;PMS5003;41136;51.478;-2.610;2024-03-25T04:30:04;6;5;
55276;PMS5003;41136;51.478;-2.610;2024-03-25T04:32:29;4;4;
55276;PMS5003;41136;51.478;-2.610;2024-03-25T04:34:55;5;5;
55276;PMS5003;41136;51.478;-2.610;2024-03-25T04:37:20;3;3;
55276;PMS5003;41136;51.478;-2.610;2024-03-25T04:39:45;5;5;
55276;PMS5003;41136;51.478;-2.610;2024-03-25T04:45:46;7;6;
55276;PMS5003;41136;51.478;-2.610;2024-03-25T04:58:03;7;6;
55276;PMS5003;41136;51.478;-2.610;2024-03-25T05:00:33;5;5;
55276;PMS5003;41136;51.478;-2.610;2024-03-25T05:02:54;5;4;
55276;PMS5003;41136;51.478;-2.610;2024-03-25T05:05:19;7;5;
55276;PMS5003;41136;51.478;-2.610;2024-03-25T05:07:44;7;5;
55276;PMS5003;41136;51.478;-2.610;2024-03-25T05:10:10;2;2;
55276;PMS5003;41136;51.478;-2.610;2024-03-25T05:12:35;4;3;
55276;PMS5003;41136;51.478;-2.610;2024-03-25T05:15:01;9;6;
55276;PMS5003;41136;51.478;-2.610;2024-03-25T05:17:26;3;3;
55276;PMS5003;41136;51.478;-2.610;2024-03-25T05:19:51;5;5;
55276;PMS5003;41136;51.478;-2.610;2024-03-25T05:22:17;5;5;
55276;PMS5003;41136;51.478;-2.610;2024-03-25T05:24:42;6;5;
55276;PMS5003;41136;51.478;-2.610;2024-03-25T05:27:08;7;5;
55276;PMS5003;41136;51.478;-2.610;2024-03-25T05:29:33;6;5;
55276;PMS5003;41136;51.478;-2.610;2024-03-25T05:31:58;4;4;
55276;PMS5003;41136;51.478;-2.610;2024-03-25T05:34:24;4;4;
55276;PMS5003;41136;51.478;-2.610;2024-03-25T05:36:49;4;4;
55276;PMS5003;41136;51.478;-2.610;2024-03-25T05:39:14;5;3;
55276;PMS5003;41136;51.478;-2.610;2024-03-25T05:41:40;3;3;
55276;PMS5003;41136;51.478;-2.610;2024-03-25T05:44:05;6;5;
55276;PMS5003;41136;51.478;-2.610;2024-03-25T05:46:30;8;5;
55276;PMS5003;41136;51.478;-2.610;2024-03-25T05:48:56;4;4;
55276;PMS5003;41136;51.478;-2.610;2024-03-25T05:51:21;4;3;
55276;PMS5003;41136;51.478;-2.610;2024-03-25T05:53:47;4;4;
55276;PMS5003;41136;51.478;-2.610;2024-03-25T05:56:12;3;2;
55276;PMS5003;41136;51.478;-2.610;2024-03-25T05:58:37;3;2;
55276;PMS5003;41136;51.478;-2.610;2024-03-25T06:01:03;5;5;
55276;PMS5003;41136;51.478;-2.610;2024-03-25T06:03:28;5;4;
55276;PMS5003;41136;51.478;-2.610;2024-03-25T06:05:53;5;5;
55276;PMS5003;41136;51.478;-2.610;2024-03-25T06:08:24;4;4;
55276;PMS5003;41136;51.478;-2.610;2024-03-25T06:10:44;5;3;
55276;PMS5003;41136;51.478;-2.610;2024-03-25T06:13:10;8;6;
55276;PMS5003;41136;51.478;-2.610;2024-03-25T06:15:35;4;4;
55276;PMS5003;41136;51.478;-2.610;2024-03-25T06:18:00;4;4;
55276;PMS5003;41136;51.478;-2.610;2024-03-25T06:20:26;4;3;
55276;PMS5003;41136;51.478;-2.610;2024-03-25T06:22:51;3;3;
55276;PMS5003;41136;51.478;-2.610;2024-03-25T06:25:16;4;4;
55276;PMS5003;41136;51.478;-2.610;2024-03-25T06:27:42;3;3;
55276;PMS5003;41136;51.478;-2.610;2024-03-25T06:30:08;3;2;
55276;PMS5003;41136;51.478;-2.610;2024-03-25T06:32:32;3;3;
55276;PMS5003;41136;51.478;-2.610;2024-03-25T06:34:58;2;2;
55276;PMS5003;41136;51.478;-2.610;2024-03-25T06:37:23;2;2;
55276;PMS5003;41136;51.478;-2.610;2024-03-25T06:39:48;3;3;
55276;PMS5003;41136;51.478;-2.610;2024-03-25T06:42:14;1;1;
55276;PMS5003;41136;51.478;-2.610;2024-03-25T06:44:39;3;3;
55276;PMS5003;41136;51.478;-2.610;2024-03-25T06:47:05;4;4;
55276;PMS5003;41136;51.478;-2.610;2024-03-25T06:49:30;4;4;
55276;PMS5003;41136;51.478;-2.610;2024-03-25T06:51:55;5;4;
55276;PMS5003;41136;51.478;-2.610;2024-03-25T06:54:21;3;2;
55276;PMS5003;41136;51.478;-2.610;2024-03-25T06:56:46;4;3;
55276;PMS5003;41136;51.478;-2.610;2024-03-25T06:59:11;5;3;
55276;PMS5003;41136;51.478;-2.610;2024-03-25T07:01:37;3;3;
55276;PMS5003;41136;51.478;-2.610;2024-03-25T07:04:02;3;2;
55276;PMS5003;41136;51.478;-2.610;2024-03-25T07:06:27;3;3;
55276;PMS5003;41136;51.478;-2.610;2024-03-25T07:08:53;3;2;
55276;PMS5003;41136;51.478;-2.610;2024-03-25T07:11:18;2;2;
55276;PMS5003;41136;51.478;-2.610;2024-03-25T07:13:43;3;3;
55276;PMS5003;41136;51.478;-2.610;2024-03-25T07:16:09;1;1;
55276;PMS5003;41136;51.478;-2.610;2024-03-25T07:18:34;3;3;
55276;PMS5003;41136;51.478;-2.610;2024-03-25T07:21:00;3;3;
55276;PMS5003;41136;51.478;-2.610;2024-03-25T07:23:25;4;3;
55276;PMS5003;41136;51.478;-2.610;2024-03-25T07:25:50;4;4;
55276;PMS5003;41136;51.478;-2.610;2024-03-25T07:28:15;2;2;
55276;PMS5003;41136;51.478;-2.610;2024-03-25T07:30:41;2;2;
55276;PMS5003;41136;51.478;-2.610;2024-03-25T07:33:06;3;3;
55276;PMS5003;41136;51.478;-2.610;2024-03-25T07:35:31;5;4;
55276;PMS5003;41136;51.478;-2.610;2024-03-25T07:37:57;2;2;
55276;PMS5003;41136;51.478;-2.610;2024-03-25T07:40:22;2;2;
55276;PMS5003;41136;51.478;-2.610;2024-03-25T07:42:48;2;2;
55276;PMS5003;41136;51.478;-2.610;2024-03-25T07:45:13;5;2;
55276;PMS5003;41136;51.478;-2.610;2024-03-25T07:47:38;3;3;
55276;PMS5003;41136;51.478;-2.610;2024-03-25T07:50:04;5;5;
55276;PMS5003;41136;51.478;-2.610;2024-03-25T07:52:29;4;2;
55276;PMS5003;41136;51.478;-2.610;2024-03-25T07:54:54;3;3;
55276;PMS5003;41136;51.478;-2.610;2024-03-25T07:57:20;3;2;
55276;PMS5003;41136;51.478;-2.610;2024-03-25T07:59:45;2;2;
55276;PMS5003;41136;51.478;-2.610;2024-03-25T08:02:10;4;3;
55276;PMS5003;41136;51.478;-2.610;2024-03-25T08:04:36;3;3;
55276;PMS5003;41136;51.478;-2.610;2024-03-25T08:07:01;7;4;
55276;PMS5003;41136;51.478;-2.610;2024-03-25T08:09:26;5;5;
55276;PMS5003;41136;51.478;-2.610;2024-03-25T08:11:52;4;4;
55276;PMS5003;41136;51.478;-2.610;2024-03-25T08:14:17;5;3;
55276;PMS5003;41136;51.478;-2.610;2024-03-25T08:16:43;4;4;
55276;PMS5003;41136;51.478;-2.610;2024-03-25T08:19:08;4;3;
55276;PMS5003;41136;51.478;-2.610;2024-03-25T08:21:33;4;4;
55276;PMS5003;41136;51.478;-2.610;2024-03-25T08:23:59;6;5;
55276;PMS5003;41136;51.478;-2.610;2024-03-25T08:26:24;8;4;
55276;PMS5003;41136;51.478;-2.610;2024-03-25T08:28:49;4;3;
55276;PMS5003;41136;51.478;-2.610;2024-03-25T08:31:15;4;4;
55276;PMS5003;41136;51.478;-2.610;2024-03-25T08:33:40;5;3;
55276;PMS5003;41136;51.478;-2.610;2024-03-25T08:36:06;5;5;
55276;PMS5003;41136;51.478;-2.610;2024-03-25T08:38:31;2;2;
55276;PMS5003;41136;51.478;-2.610;2024-03-25T08:40:56;5;5;
55276;PMS5003;41136;51.478;-2.610;2024-03-25T08:43:21;6;4;
55276;PMS5003;41136;51.478;-2.610;2024-03-25T08:45:47;7;5;
55276;PMS5003;41136;51.478;-2.610;2024-03-25T08:48:12;3;3;
55276;PMS5003;41136;51.478;-2.610;2024-03-25T08:50:37;4;4;
55276;PMS5003;41136;51.478;-2.610;2024-03-25T08:53:03;5;4;
55276;PMS5003;41136;51.478;-2.610;2024-03-25T08:55:28;5;3;
55276;PMS5003;41136;51.478;-2.610;2024-03-25T08:57:53;3;2;
55276;PMS5003;41136;51.478;-2.610;2024-03-25T09:00:19;3;3;
55276;PMS5003;41136;51.478;-2.610;2024-03-25T09:02:44;5;3;
55276;PMS5003;41136;51.478;-2.610;2024-03-25T09:05:10;2;2;
55276;PMS5003;41136;51.478;-2.610;2024-03-25T09:07:35;4;3;
55276;PMS5003;41136;51.478;-2.610;2024-03-25T09:10:00;5;4;
55276;PMS5003;41136;51.478;-2.610;2024-03-25T09:12:26;3;3;
55276;PMS5003;41136;51.478;-2.610;2024-03-25T09:14:51;4;4;
55276;PMS5003;41136;51.478;-2.610;2024-03-25T09:17:16;4;3;
55276;PMS5003;41136;51.478;-2.610;2024-03-25T09:19:41;5;5;
55276;PMS5003;41136;51.478;-2.610;2024-03-25T09:22:07;3;3;
55276;PMS5003;41136;51.478;-2.610;2024-03-25T09:24:32;4;4;
55276;PMS5003;41136;51.478;-2.610;2024-03-25T09:26:57;8;6;
55276;PMS5003;41136;51.478;-2.610;2024-03-25T09:29:22;2;2;
55276;PMS5003;41136;51.478;-2.610;2024-03-25T09:31:48;6;6;
55276;PMS5003;41136;51.478;-2.610;2024-03-25T09:34:13;6;5;
55276;PMS5003;41136;51.478;-2.610;2024-03-25T09:36:38;4;4;
55276;PMS5003;41136;51.478;-2.610;2024-03-25T09:39:03;4;4;
55276;PMS5003;41136;51.478;-2.610;2024-03-25T09:41:29;3;3;
55276;PMS5003;41136;51.478;-2.610;2024-03-25T09:43:54;5;5;
55276;PMS5003;41136;51.478;-2.610;2024-03-25T09:46:20;7;5;
55276;PMS5003;41136;51.478;-2.610;2024-03-25T09:48:45;10;4;
55276;PMS5003;41136;51.478;-2.610;2024-03-25T09:51:10;5;5;
55276;PMS5003;41136;51.478;-2.610;2024-03-25T09:53:36;5;5;
55276;PMS5003;41136;51.478;-2.610;2024-03-25T09:56:01;7;7;
55276;PMS5003;41136;51.478;-2.610;2024-03-25T09:58:26;6;4;
55276;PMS5003;41136;51.478;-2.610;2024-03-25T10:00:52;6;4;
55276;PMS5003;41136;51.478;-2.610;2024-03-25T10:03:17;6;4;
55276;PMS5003;41136;51.478;-2.610;2024-03-25T10:05:42;6;4;
55276;PMS5003;41136;51.478;-2.610;2024-03-25T10:08:08;5;5;
55276;PMS5003;41136;51.478;-2.610;2024-03-25T10:10:33;5;4;
55276;PMS5003;41136;51.478;-2.610;2024-03-25T10:12:58;2;2;
55276;PMS5003;41136;51.478;-2.610;2024-03-25T10:15:24;2;2;
55276;PMS5003;41136;51.478;-2.610;2024-03-25T10:17:49;10;5;
55276;PMS5003;41136;51.478;-2.610;2024-03-25T10:20:15;5;4;
55276;PMS5003;41136;51.478;-2.610;2024-03-25T10:22:40;3;3;
55276;PMS5003;41136;51.478;-2.610;2024-03-25T10:25:06;4;4;
55276;PMS5003;41136;51.478;-2.610;2024-03-25T10:27:31;4;4;
55276;PMS5003;41136;51.478;-2.610;2024-03-25T10:29:56;6;5;
55276;PMS5003;41136;51.478;-2.610;2024-03-25T10:32:22;2;2;
55276;PMS5003;41136;51.478;-2.610;2024-03-25T10:34:47;3;3;
55276;PMS5003;41136;51.478;-2.610;2024-03-25T10:37:12;3;3;
55276;PMS5003;41136;51.478;-2.610;2024-03-25T10:39:39;5;3;
55276;PMS5003;41136;51.478;-2.610;2024-03-25T10:42:03;3;3;
55276;PMS5003;41136;51.478;-2.610;2024-03-25T10:44:28;4;3;
55276;PMS5003;41136;51.478;-2.610;2024-03-25T10:46:55;3;3;
55276;PMS5003;41136;51.478;-2.610;2024-03-25T10:49:21;5;2;
55276;PMS5003;41136;51.478;-2.610;2024-03-25T10:51:44;3;3;
55276;PMS5003;41136;51.478;-2.610;2024-03-25T10:54:10;5;3;
55276;PMS5003;41136;51.478;-2.610;2024-03-25T10:56:35;3;2;
55276;PMS5003;41136;51.478;-2.610;2024-03-25T10:59:00;6;4;
55276;PMS5003;41136;51.478;-2.610;2024-03-25T11:01:26;5;2;
55276;PMS5003;41136;51.478;-2.610;2024-03-25T11:03:51;2;2;
55276;PMS5003;41136;51.478;-2.610;2024-03-25T11:06:16;4;3;
55276;PMS5003;41136;51.478;-2.610;2024-03-25T11:08:42;4;3;
55276;PMS5003;41136;51.478;-2.610;2024-03-25T11:11:07;3;3;
55276;PMS5003;41136;51.478;-2.610;2024-03-25T11:13:32;3;2;
55276;PMS5003;41136;51.478;-2.610;2024-03-25T11:15:58;5;3;
55276;PMS5003;41136;51.478;-2.610;2024-03-25T11:18:23;4;2;
55276;PMS5003;41136;51.478;-2.610;2024-03-25T11:20:58;4;4;
55276;PMS5003;41136;51.478;-2.610;2024-03-25T11:23:14;3;3;
55276;PMS5003;41136;51.478;-2.610;2024-03-25T11:25:39;4;4;
55276;PMS5003;41136;51.478;-2.610;2024-03-25T11:28:05;2;2;
55276;PMS5003;41136;51.478;-2.610;2024-03-25T11:30:30;4;4;
55276;PMS5003;41136;51.478;-2.610;2024-03-25T11:32:55;3;3;
55276;PMS5003;41136;51.478;-2.610;2024-03-25T11:35:20;3;3;
55276;PMS5003;41136;51.478;-2.610;2024-03-25T11:37:46;3;3;
55276;PMS5003;41136;51.478;-2.610;2024-03-25T11:40:12;3;3;
55276;PMS5003;41136;51.478;-2.610;2024-03-25T11:42:37;2;2;
55276;PMS5003;41136;51.478;-2.610;2024-03-25T11:45:02;3;3;
55276;PMS5003;41136;51.478;-2.610;2024-03-25T11:47:27;3;3;
55276;PMS5003;41136;51.478;-2.610;2024-03-25T11:49:52;4;3;
55276;PMS5003;41136;51.478;-2.610;2024-03-25T11:52:18;7;6;
55276;PMS5003;41136;51.478;-2.610;2024-03-25T11:54:43;3;3;
55276;PMS5003;41136;51.478;-2.610;2024-03-25T11:57:08;4;4;
55276;PMS5003;41136;51.478;-2.610;2024-03-25T11:59:33;7;3;
55276;PMS5003;41136;51.478;-2.610;2024-03-25T12:01:59;3;3;
55276;PMS5003;41136;51.478;-2.610;2024-03-25T12:04:24;2;2;
55276;PMS5003;41136;51.478;-2.610;2024-03-25T12:06:53;6;4;
55276;PMS5003;41136;51.478;-2.610;2024-03-25T12:09:15;4;4;
55276;PMS5003;41136;51.478;-2.610;2024-03-25T12:11:41;3;2;
55276;PMS5003;41136;51.478;-2.610;2024-03-25T12:14:06;7;5;
55276;PMS5003;41136;51.478;-2.610;2024-03-25T12:16:31;5;3;
55276;PMS5003;41136;51.478;-2.610;2024-03-25T12:18:57;2;2;
55276;PMS5003;41136;51.478;-2.610;2024-03-25T12:21:22;3;3;
55276;PMS5003;41136;51.478;-2.610;2024-03-25T12:23:47;2;2;
55276;PMS5003;41136;51.478;-2.610;2024-03-25T12:26:13;3;3;
55276;PMS5003;41136;51.478;-2.610;2024-03-25T12:28:39;2;2;
55276;PMS5003;41136;51.478;-2.610;2024-03-25T12:31:07;5;3;
55276;PMS5003;41136;51.478;-2.610;2024-03-25T12:33:29;3;3;
55276;PMS5003;41136;51.478;-2.610;2024-03-25T12:35:54;4;4;
55276;PMS5003;41136;51.478;-2.610;2024-03-25T12:38:24;3;3;
55276;PMS5003;41136;51.478;-2.610;2024-03-25T12:40:45;4;4;
55276;PMS5003;41136;51.478;-2.610;2024-03-25T12:43:13;6;3;
55276;PMS5003;41136;51.478;-2.610;2024-03-25T12:45:35;5;5;
55276;PMS5003;41136;51.478;-2.610;2024-03-25T12:48:01;3;3;
55276;PMS5003;41136;51.478;-2.610;2024-03-25T12:50:26;4;4;
55276;PMS5003;41136;51.478;-2.610;2024-03-25T12:52:51;3;3;
55276;PMS5003;41136;51.478;-2.610;2024-03-25T12:55:17;6;5;
55276;PMS5003;41136;51.478;-2.610;2024-03-25T12:57:42;7;5;
55276;PMS5003;41136;51.478;-2.610;2024-03-25T13:00:08;9;6;
55276;PMS5003;41136;51.478;-2.610;2024-03-25T13:02:33;8;8;
55276;PMS5003;41136;51.478;-2.610;2024-03-25T13:04:58;9;7;
55276;PMS5003;41136;51.478;-2.610;2024-03-25T13:07:23;8;5;
55276;PMS5003;41136;51.478;-2.610;2024-03-25T13:09:49;8;6;
55276;PMS5003;41136;51.478;-2.610;2024-03-25T13:12:14;4;3;
55276;PMS5003;41136;51.478;-2.610;2024-03-25T13:14:39;7;7;
55276;PMS5003;41136;51.478;-2.610;2024-03-25T13:17:05;7;7;
55276;PMS5003;41136;51.478;-2.610;2024-03-25T13:19:30;9;7;
55276;PMS5003;41136;51.478;-2.610;2024-03-25T13:21:56;8;8;
55276;PMS5003;41136;51.478;-2.610;2024-03-25T13:24:21;10;8;
55276;PMS5003;41136;51.478;-2.610;2024-03-25T13:26:47;13;10;
55276;PMS5003;41136;51.478;-2.610;2024-03-25T13:29:13;9;9;
55276;PMS5003;41136;51.478;-2.610;2024-03-25T13:31:38;10;10;
55276;PMS5003;41136;51.478;-2.610;2024-03-25T13:34:03;14;10;
55276;PMS5003;41136;51.478;-2.610;2024-03-25T13:36:29;10;9;
55276;PMS5003;41136;51.478;-2.610;2024-03-25T13:38:54;9;9;
55276;PMS5003;41136;51.478;-2.610;2024-03-25T13:41:19;11;9;
55276;PMS5003;41136;51.478;-2.610;2024-03-25T13:43:45;7;7;
55276;PMS5003;41136;51.478;-2.610;2024-03-25T13:46:10;10;7;
55276;PMS5003;41136;51.478;-2.610;2024-03-25T13:48:35;10;8;
55276;PMS5003;41136;51.478;-2.610;2024-03-25T13:51:01;8;6;
55276;PMS5003;41136;51.478;-2.610;2024-03-25T13:53:26;8;6;
55276;PMS5003;41136;51.478;-2.610;2024-03-25T14:13:57;4;3;
55276;PMS5003;41136;51.478;-2.610;2024-03-25T14:16:22;3;3;
55276;PMS5003;41136;51.478;-2.610;2024-03-25T14:18:47;2;2;
55276;PMS5003;41136;51.478;-2.610;2024-03-25T14:21:13;3;3;
55276;PMS5003;41136;51.478;-2.610;2024-03-25T14:23:38;3;3;
55276;PMS5003;41136;51.478;-2.610;2024-03-25T14:26:03;3;3;
55276;PMS5003;41136;51.478;-2.610;2024-03-25T14:28:28;6;3;
55276;PMS5003;41136;51.478;-2.610;2024-03-25T14:30:54;4;3;
55276;PMS5003;41136;51.478;-2.610;2024-03-25T14:33:19;3;3;
55276;PMS5003;41136;51.478;-2.610;2024-03-25T14:35:45;6;4;
55276;PMS5003;41136;51.478;-2.610;2024-03-25T14:38:10;4;4;
55276;PMS5003;41136;51.478;-2.610;2024-03-25T14:40:37;4;2;
55276;PMS5003;41136;51.478;-2.610;2024-03-25T14:43:01;4;2;
55276;PMS5003;41136;51.478;-2.610;2024-03-25T14:45:26;1;1;
55276;PMS5003;41136;51.478;-2.610;2024-03-25T14:47:51;2;2;
55276;PMS5003;41136;51.478;-2.610;2024-03-25T14:50:17;2;2;
55276;PMS5003;41136;51.478;-2.610;2024-03-25T14:52:42;4;3;
55276;PMS5003;41136;51.478;-2.610;2024-03-25T14:55:08;2;2;
55276;PMS5003;41136;51.478;-2.610;2024-03-25T14:57:33;5;4;
55276;PMS5003;41136;51.478;-2.610;2024-03-25T14:59:58;5;5;
55276;PMS5003;41136;51.478;-2.610;2024-03-25T15:02:23;5;3;
55276;PMS5003;41136;51.478;-2.610;2024-03-25T15:04:49;3;3;
55276;PMS5003;41136;51.478;-2.610;2024-03-25T15:07:14;4;2;
55276;PMS5003;41136;51.478;-2.610;2024-03-25T15:09:40;2;2;
55276;PMS5003;41136;51.478;-2.610;2024-03-25T15:12:05;3;3;
55276;PMS5003;41136;51.478;-2.610;2024-03-25T15:14:30;4;3;
55276;PMS5003;41136;51.478;-2.610;2024-03-25T15:16:55;5;3;
55276;PMS5003;41136;51.478;-2.610;2024-03-25T15:19:21;4;3;
55276;PMS5003;41136;51.478;-2.610;2024-03-25T15:21:46;2;2;
55276;PMS5003;41136;51.478;-2.610;2024-03-25T15:24:11;4;3;
55276;PMS5003;41136;51.478;-2.610;2024-03-25T15:26:37;3;3;
55276;PMS5003;41136;51.478;-2.610;2024-03-25T15:29:03;4;4;
55276;PMS5003;41136;51.478;-2.610;2024-03-25T15:31:28;4;4;
55276;PMS5003;41136;51.478;-2.610;2024-03-25T15:33:59;3;3;
55276;PMS5003;41136;51.478;-2.610;2024-03-25T15:36:19;5;5;
55276;PMS5003;41136;51.478;-2.610;2024-03-25T15:38:44;6;4;
55276;PMS5003;41136;51.478;-2.610;2024-03-25T15:41:10;4;4;
55276;PMS5003;41136;51.478;-2.610;2024-03-25T15:43:35;4;3;
55276;PMS5003;41136;51.478;-2.610;2024-03-25T15:46:00;5;5;
55276;PMS5003;41136;51.478;-2.610;2024-03-25T15:48:26;5;3;
55276;PMS5003;41136;51.478;-2.610;2024-03-25T15:50:51;4;4;
55276;PMS5003;41136;51.478;-2.610;2024-03-25T15:53:18;5;3;
55276;PMS5003;41136;51.478;-2.610;2024-03-25T15:55:42;3;3;
55276;PMS5003;41136;51.478;-2.610;2024-03-25T15:58:08;3;3;
55276;PMS5003;41136;51.478;-2.610;2024-03-25T16:00:33;3;3;
55276;PMS5003;41136;51.478;-2.610;2024-03-25T16:02:58;7;5;
55276;PMS5003;41136;51.478;-2.610;2024-03-25T16:05:25;7;5;
55276;PMS5003;41136;51.478;-2.610;2024-03-25T16:07:49;11;9;
55276;PMS5003;41136;51.478;-2.610;2024-03-25T16:10:15;8;8;
55276;PMS5003;41136;51.478;-2.610;2024-03-25T16:12:40;8;7;
55276;PMS5003;41136;51.478;-2.610;2024-03-25T16:15:05;8;8;
55276;PMS5003;41136;51.478;-2.610;2024-03-25T16:17:31;10;8;
55276;PMS5003;41136;51.478;-2.610;2024-03-25T16:19:57;13;10;
55276;PMS5003;41136;51.478;-2.610;2024-03-25T16:22:21;8;8;
55276;PMS5003;41136;51.478;-2.610;2024-03-25T16:24:48;8;8;
55276;PMS5003;41136;51.478;-2.610;2024-03-25T16:27:11;7;6;
55276;PMS5003;41136;51.478;-2.610;2024-03-25T16:29:37;3;3;
55276;PMS5003;41136;51.478;-2.610;2024-03-25T16:32:02;7;5;
55276;PMS5003;41136;51.478;-2.610;2024-03-25T16:34:27;4;4;
55276;PMS5003;41136;51.478;-2.610;2024-03-25T16:36:53;5;4;
55276;PMS5003;41136;51.478;-2.610;2024-03-25T16:39:18;6;6;
55276;PMS5003;41136;51.478;-2.610;2024-03-25T16:41:43;5;5;
55276;PMS5003;41136;51.478;-2.610;2024-03-25T16:44:09;7;7;
55276;PMS5003;41136;51.478;-2.610;2024-03-25T16:46:34;7;7;
55276;PMS5003;41136;51.478;-2.610;2024-03-25T16:48:59;2;2;
55276;PMS5003;41136;51.478;-2.610;2024-03-25T16:51:25;6;5;
55276;PMS5003;41136;51.478;-2.610;2024-03-25T16:53:50;7;4;
55276;PMS5003;41136;51.478;-2.610;2024-03-25T16:56:16;6;4;
55276;PMS5003;41136;51.478;-2.610;2024-03-25T16:58:41;6;6;
55276;PMS5003;41136;51.478;-2.610;2024-03-25T17:04:34;1;1;
55276;PMS5003;41136;51.478;-2.610;2024-03-25T17:07:00;4;4;
55276;PMS5003;41136;51.478;-2.610;2024-03-25T17:09:24;6;6;